sensor_id;sensor_type;location;lat;lon;timestamp;P1;durP1;ratioP1;P2;durP2;ratioP2
52740;SDS011;38634;52.138;9.912;2023-10-08T00:01:04;11.02;;;2.80;;
52740;SDS011;38634;52.138;9.912;2023-10-08T00:03:55;8.65;;;2.10;;
52740;SDS011;38634;52.138;9.912;2023-10-08T00:06:45;11.00;;;2.45;;
52740;SDS011;38634;52.138;9.912;2023-10-08T00:09:30;9.35;;;2.78;;
52740;SDS011;38634;52.138;9.912;2023-10-08T00:12:19;11.90;;;3.65;;
52740;SDS011;38634;52.138;9.912;2023-10-08T00:15:04;11.93;;;2.80;;
52740;SDS011;38634;52.138;9.912;2023-10-08T00:17:54;10.88;;;2.70;;
52740;SDS011;38634;52.138;9.912;2023-10-08T00:20:38;8.35;;;2.20;;
52740;SDS011;38634;52.138;9.912;2023-10-08T00:23:30;6.45;;;1.88;;
52740;SDS011;38634;52.138;9.912;2023-10-08T00:26:19;12.57;;;3.03;;
52740;SDS011;38634;52.138;9.912;2023-10-08T00:29:13;9.90;;;2.47;;
52740;SDS011;38634;52.138;9.912;2023-10-08T00:32:05;12.82;;;4.70;;
52740;SDS011;38634;52.138;9.912;2023-10-08T00:34:55;12.20;;;3.15;;
52740;SDS011;38634;52.138;9.912;2023-10-08T00:37:40;9.73;;;2.50;;
52740;SDS011;38634;52.138;9.912;2023-10-08T00:40:24;10.25;;;2.67;;
52740;SDS011;38634;52.138;9.912;2023-10-08T00:43:09;10.85;;;3.03;;
52740;SDS011;38634;52.138;9.912;2023-10-08T00:45:54;8.65;;;2.60;;
52740;SDS011;38634;52.138;9.912;2023-10-08T00:48:38;8.52;;;2.42;;
52740;SDS011;38634;52.138;9.912;2023-10-08T00:51:27;9.30;;;2.60;;
52740;SDS011;38634;52.138;9.912;2023-10-08T00:54:24;6.20;;;2.22;;
52740;SDS011;38634;52.138;9.912;2023-10-08T00:57:08;3.53;;;1.75;;
52740;SDS011;38634;52.138;9.912;2023-10-08T00:59:55;8.48;;;2.60;;
52740;SDS011;38634;52.138;9.912;2023-10-08T01:02:42;12.23;;;3.08;;
52740;SDS011;38634;52.138;9.912;2023-10-08T01:05:32;12.05;;;3.30;;
52740;SDS011;38634;52.138;9.912;2023-10-08T01:08:26;9.80;;;2.78;;
52740;SDS011;38634;52.138;9.912;2023-10-08T01:11:22;10.50;;;2.90;;
52740;SDS011;38634;52.138;9.912;2023-10-08T01:14:23;10.18;;;2.88;;
52740;SDS011;38634;52.138;9.912;2023-10-08T01:17:16;10.70;;;3.03;;
52740;SDS011;38634;52.138;9.912;2023-10-08T01:20:03;10.60;;;2.72;;
52740;SDS011;38634;52.138;9.912;2023-10-08T01:23:09;10.48;;;2.95;;
52740;SDS011;38634;52.138;9.912;2023-10-08T01:26:03;10.52;;;2.75;;
52740;SDS011;38634;52.138;9.912;2023-10-08T01:28:54;9.13;;;2.47;;
52740;SDS011;38634;52.138;9.912;2023-10-08T01:31:39;9.93;;;2.97;;
52740;SDS011;38634;52.138;9.912;2023-10-08T01:34:24;9.68;;;2.55;;
52740;SDS011;38634;52.138;9.912;2023-10-08T01:37:18;10.80;;;2.65;;
52740;SDS011;38634;52.138;9.912;2023-10-08T01:40:03;7.93;;;2.38;;
52740;SDS011;38634;52.138;9.912;2023-10-08T01:42:55;7.90;;;2.47;;
52740;SDS011;38634;52.138;9.912;2023-10-08T01:45:43;4.95;;;1.70;;
52740;SDS011;38634;52.138;9.912;2023-10-08T01:48:31;10.13;;;2.97;;
52740;SDS011;38634;52.138;9.912;2023-10-08T01:51:21;9.88;;;3.00;;
52740;SDS011;38634;52.138;9.912;2023-10-08T01:54:09;9.35;;;3.00;;
52740;SDS011;38634;52.138;9.912;2023-10-08T01:56:57;9.00;;;2.70;;
52740;SDS011;38634;52.138;9.912;2023-10-08T01:59:43;9.55;;;2.85;;
52740;SDS011;38634;52.138;9.912;2023-10-08T02:02:27;9.20;;;2.92;;
52740;SDS011;38634;52.138;9.912;2023-10-08T02:05:12;8.80;;;2.50;;
52740;SDS011;38634;52.138;9.912;2023-10-08T02:07:58;9.95;;;3.35;;
52740;SDS011;38634;52.138;9.912;2023-10-08T02:10:43;10.90;;;3.00;;
52740;SDS011;38634;52.138;9.912;2023-10-08T02:13:31;10.68;;;3.03;;
52740;SDS011;38634;52.138;9.912;2023-10-08T02:16:18;11.38;;;2.97;;
52740;SDS011;38634;52.138;9.912;2023-10-08T02:19:05;10.85;;;3.08;;
52740;SDS011;38634;52.138;9.912;2023-10-08T02:21:50;12.70;;;3.80;;
52740;SDS011;38634;52.138;9.912;2023-10-08T02:24:35;10.90;;;3.00;;
52740;SDS011;38634;52.138;9.912;2023-10-08T02:27:21;9.70;;;2.97;;
52740;SDS011;38634;52.138;9.912;2023-10-08T02:30:06;9.60;;;2.83;;
52740;SDS011;38634;52.138;9.912;2023-10-08T02:32:53;8.77;;;2.75;;
52740;SDS011;38634;52.138;9.912;2023-10-08T02:35:38;10.20;;;3.08;;
52740;SDS011;38634;52.138;9.912;2023-10-08T02:38:26;8.75;;;2.72;;
52740;SDS011;38634;52.138;9.912;2023-10-08T02:41:16;10.00;;;3.10;;
52740;SDS011;38634;52.138;9.912;2023-10-08T02:44:01;11.30;;;3.28;;
52740;SDS011;38634;52.138;9.912;2023-10-08T02:46:49;10.52;;;3.17;;
52740;SDS011;38634;52.138;9.912;2023-10-08T02:49:34;7.95;;;2.65;;
52740;SDS011;38634;52.138;9.912;2023-10-08T02:52:20;10.23;;;3.00;;
52740;SDS011;38634;52.138;9.912;2023-10-08T02:55:05;7.80;;;2.67;;
52740;SDS011;38634;52.138;9.912;2023-10-08T02:58:02;12.93;;;3.63;;
52740;SDS011;38634;52.138;9.912;2023-10-08T03:00:48;9.77;;;2.92;;
52740;SDS011;38634;52.138;9.912;2023-10-08T03:03:32;9.50;;;3.03;;
52740;SDS011;38634;52.138;9.912;2023-10-08T03:06:17;13.02;;;3.60;;
52740;SDS011;38634;52.138;9.912;2023-10-08T03:09:02;10.65;;;2.83;;
52740;SDS011;38634;52.138;9.912;2023-10-08T03:11:50;10.82;;;3.22;;
52740;SDS011;38634;52.138;9.912;2023-10-08T03:14:36;7.82;;;2.30;;
52740;SDS011;38634;52.138;9.912;2023-10-08T03:17:33;9.70;;;2.83;;
52740;SDS011;38634;52.138;9.912;2023-10-08T03:20:20;14.38;;;3.85;;
52740;SDS011;38634;52.138;9.912;2023-10-08T03:23:13;14.18;;;3.83;;
52740;SDS011;38634;52.138;9.912;2023-10-08T10:00:45;11.35;;;3.90;;
52740;SDS011;38634;52.138;9.912;2023-10-08T10:03:32;7.65;;;2.42;;
52740;SDS011;38634;52.138;9.912;2023-10-08T10:06:19;7.18;;;2.00;;
52740;SDS011;38634;52.138;9.912;2023-10-08T10:09:05;7.68;;;2.47;;
52740;SDS011;38634;52.138;9.912;2023-10-08T10:11:59;6.65;;;2.58;;
52740;SDS011;38634;52.138;9.912;2023-10-08T10:14:47;6.60;;;2.30;;
52740;SDS011;38634;52.138;9.912;2023-10-08T10:17:32;5.88;;;2.00;;
52740;SDS011;38634;52.138;9.912;2023-10-08T10:20:16;6.18;;;2.22;;
52740;SDS011;38634;52.138;9.912;2023-10-08T10:23:14;7.88;;;2.42;;
52740;SDS011;38634;52.138;9.912;2023-10-08T10:26:30;9.43;;;2.75;;
52740;SDS011;38634;52.138;9.912;2023-10-08T10:29:17;11.48;;;2.53;;
52740;SDS011;38634;52.138;9.912;2023-10-08T10:32:03;10.55;;;2.53;;
52740;SDS011;38634;52.138;9.912;2023-10-08T10:34:49;9.77;;;2.63;;
52740;SDS011;38634;52.138;9.912;2023-10-08T10:37:35;9.68;;;2.42;;
52740;SDS011;38634;52.138;9.912;2023-10-08T10:40:35;10.57;;;2.70;;
52740;SDS011;38634;52.138;9.912;2023-10-08T10:43:23;6.88;;;1.88;;
52740;SDS011;38634;52.138;9.912;2023-10-08T10:46:16;12.93;;;2.83;;
52740;SDS011;38634;52.138;9.912;2023-10-08T10:49:12;12.85;;;3.17;;
52740;SDS011;38634;52.138;9.912;2023-10-08T10:52:07;12.75;;;4.35;;
52740;SDS011;38634;52.138;9.912;2023-10-08T10:54:55;11.13;;;2.70;;
52740;SDS011;38634;52.138;9.912;2023-10-08T10:57:46;7.32;;;2.20;;
52740;SDS011;38634;52.138;9.912;2023-10-08T11:00:47;10.90;;;3.08;;
52740;SDS011;38634;52.138;9.912;2023-10-08T11:03:32;10.35;;;2.63;;
52740;SDS011;38634;52.138;9.912;2023-10-08T11:06:19;7.78;;;2.65;;
52740;SDS011;38634;52.138;9.912;2023-10-08T11:09:07;6.97;;;2.03;;
52740;SDS011;38634;52.138;9.912;2023-10-08T11:11:58;8.63;;;2.65;;
52740;SDS011;38634;52.138;9.912;2023-10-08T11:14:46;7.82;;;1.98;;
52740;SDS011;38634;52.138;9.912;2023-10-08T11:17:31;7.43;;;2.08;;
52740;SDS011;38634;52.138;9.912;2023-10-08T11:20:24;10.45;;;2.65;;
52740;SDS011;38634;52.138;9.912;2023-10-08T11:26:20;8.63;;;2.20;;
52740;SDS011;38634;52.138;9.912;2023-10-08T11:29:15;9.88;;;2.60;;
52740;SDS011;38634;52.138;9.912;2023-10-08T11:32:08;12.57;;;5.03;;
52740;SDS011;38634;52.138;9.912;2023-10-08T11:35:01;9.70;;;2.30;;
52740;SDS011;38634;52.138;9.912;2023-10-08T11:37:59;8.32;;;2.50;;
52740;SDS011;38634;52.138;9.912;2023-10-08T11:40:47;5.88;;;1.88;;
52740;SDS011;38634;52.138;9.912;2023-10-08T11:43:40;7.30;;;2.20;;
52740;SDS011;38634;52.138;9.912;2023-10-08T11:46:25;7.63;;;1.90;;
52740;SDS011;38634;52.138;9.912;2023-10-08T11:49:11;7.75;;;2.03;;
52740;SDS011;38634;52.138;9.912;2023-10-08T11:52:01;8.52;;;2.47;;
52740;SDS011;38634;52.138;9.912;2023-10-08T11:54:46;6.30;;;1.92;;
52740;SDS011;38634;52.138;9.912;2023-10-08T11:57:32;5.97;;;2.00;;
52740;SDS011;38634;52.138;9.912;2023-10-08T12:00:19;5.68;;;1.58;;
52740;SDS011;38634;52.138;9.912;2023-10-08T12:03:04;4.15;;;1.63;;
52740;SDS011;38634;52.138;9.912;2023-10-08T12:05:49;4.85;;;1.38;;
52740;SDS011;38634;52.138;9.912;2023-10-08T12:08:42;7.18;;;1.90;;
52740;SDS011;38634;52.138;9.912;2023-10-08T12:11:29;6.10;;;1.67;;
52740;SDS011;38634;52.138;9.912;2023-10-08T12:14:17;5.93;;;2.03;;
52740;SDS011;38634;52.138;9.912;2023-10-08T12:17:02;8.02;;;2.15;;
52740;SDS011;38634;52.138;9.912;2023-10-08T12:19:54;8.90;;;2.22;;
52740;SDS011;38634;52.138;9.912;2023-10-08T12:22:39;9.65;;;3.15;;
52740;SDS011;38634;52.138;9.912;2023-10-08T12:25:24;8.63;;;2.25;;
52740;SDS011;38634;52.138;9.912;2023-10-08T12:28:09;6.90;;;1.95;;
52740;SDS011;38634;52.138;9.912;2023-10-08T12:30:55;8.48;;;2.30;;
52740;SDS011;38634;52.138;9.912;2023-10-08T12:33:40;8.55;;;2.10;;
52740;SDS011;38634;52.138;9.912;2023-10-08T12:36:24;8.70;;;2.30;;
52740;SDS011;38634;52.138;9.912;2023-10-08T12:39:16;9.75;;;2.40;;
52740;SDS011;38634;52.138;9.912;2023-10-08T12:42:01;12.70;;;2.85;;
52740;SDS011;38634;52.138;9.912;2023-10-08T12:44:49;8.05;;;1.95;;
52740;SDS011;38634;52.138;9.912;2023-10-08T12:47:33;8.63;;;2.20;;
52740;SDS011;38634;52.138;9.912;2023-10-08T12:50:20;8.07;;;2.10;;
52740;SDS011;38634;52.138;9.912;2023-10-08T12:53:13;9.73;;;2.33;;
52740;SDS011;38634;52.138;9.912;2023-10-08T12:56:03;11.10;;;2.67;;
52740;SDS011;38634;52.138;9.912;2023-10-08T12:58:58;10.27;;;2.78;;
52740;SDS011;38634;52.138;9.912;2023-10-08T13:01:42;11.75;;;3.22;;
52740;SDS011;38634;52.138;9.912;2023-10-08T13:04:27;10.70;;;2.60;;
52740;SDS011;38634;52.138;9.912;2023-10-08T13:07:12;9.43;;;2.38;;
52740;SDS011;38634;52.138;9.912;2023-10-08T13:09:57;8.68;;;2.30;;
52740;SDS011;38634;52.138;9.912;2023-10-08T13:12:43;8.48;;;2.60;;
52740;SDS011;38634;52.138;9.912;2023-10-08T13:15:27;10.52;;;2.45;;
52740;SDS011;38634;52.138;9.912;2023-10-08T13:18:12;10.20;;;3.20;;
52740;SDS011;38634;52.138;9.912;2023-10-08T13:20:57;12.43;;;2.85;;
52740;SDS011;38634;52.138;9.912;2023-10-08T13:23:42;14.55;;;3.70;;
52740;SDS011;38634;52.138;9.912;2023-10-08T13:26:26;18.85;;;4.95;;
52740;SDS011;38634;52.138;9.912;2023-10-08T13:29:14;36.15;;;7.88;;
52740;SDS011;38634;52.138;9.912;2023-10-08T13:32:02;21.13;;;5.22;;
52740;SDS011;38634;52.138;9.912;2023-10-08T13:34:48;15.05;;;3.83;;
52740;SDS011;38634;52.138;9.912;2023-10-08T13:37:35;32.85;;;7.38;;
52740;SDS011;38634;52.138;9.912;2023-10-08T13:40:20;26.58;;;6.38;;
52740;SDS011;38634;52.138;9.912;2023-10-08T13:43:16;24.73;;;6.30;;
52740;SDS011;38634;52.138;9.912;2023-10-08T13:46:05;35.47;;;8.25;;
52740;SDS011;38634;52.138;9.912;2023-10-08T13:48:53;11.60;;;3.10;;
52740;SDS011;38634;52.138;9.912;2023-10-08T13:51:38;21.20;;;5.88;;
52740;SDS011;38634;52.138;9.912;2023-10-08T13:54:22;33.55;;;7.95;;
52740;SDS011;38634;52.138;9.912;2023-10-08T13:57:12;14.38;;;3.50;;
52740;SDS011;38634;52.138;9.912;2023-10-08T13:59:58;8.30;;;2.42;;
52740;SDS011;38634;52.138;9.912;2023-10-08T14:02:44;28.17;;;7.22;;
52740;SDS011;38634;52.138;9.912;2023-10-08T14:05:28;29.42;;;7.53;;
52740;SDS011;38634;52.138;9.912;2023-10-08T14:08:13;14.25;;;4.18;;
52740;SDS011;38634;52.138;9.912;2023-10-08T14:10:59;14.13;;;4.47;;
52740;SDS011;38634;52.138;9.912;2023-10-08T14:13:47;26.08;;;6.75;;
52740;SDS011;38634;52.138;9.912;2023-10-08T14:16:31;24.27;;;6.47;;
52740;SDS011;38634;52.138;9.912;2023-10-08T14:19:16;11.52;;;3.85;;
52740;SDS011;38634;52.138;9.912;2023-10-08T14:22:01;14.18;;;3.92;;
52740;SDS011;38634;52.138;9.912;2023-10-08T14:24:52;25.45;;;6.20;;
52740;SDS011;38634;52.138;9.912;2023-10-08T14:27:43;13.00;;;4.15;;
52740;SDS011;38634;52.138;9.912;2023-10-08T14:30:35;32.65;;;8.00;;
52740;SDS011;38634;52.138;9.912;2023-10-08T14:33:25;11.35;;;3.25;;
52740;SDS011;38634;52.138;9.912;2023-10-08T14:36:11;18.98;;;5.38;;
52740;SDS011;38634;52.138;9.912;2023-10-08T14:39:15;12.32;;;4.03;;
52740;SDS011;38634;52.138;9.912;2023-10-08T14:42:18;19.15;;;6.20;;
52740;SDS011;38634;52.138;9.912;2023-10-08T14:45:23;26.33;;;6.75;;
52740;SDS011;38634;52.138;9.912;2023-10-08T14:48:14;15.68;;;4.18;;
52740;SDS011;38634;52.138;9.912;2023-10-08T14:50:59;31.23;;;7.78;;
52740;SDS011;38634;52.138;9.912;2023-10-08T14:53:47;24.58;;;6.68;;
52740;SDS011;38634;52.138;9.912;2023-10-08T14:56:33;9.27;;;3.33;;
52740;SDS011;38634;52.138;9.912;2023-10-08T14:59:22;25.95;;;6.75;;
52740;SDS011;38634;52.138;9.912;2023-10-08T15:02:07;28.98;;;7.55;;
52740;SDS011;38634;52.138;9.912;2023-10-08T15:04:54;11.98;;;3.85;;
52740;SDS011;38634;52.138;9.912;2023-10-08T15:07:40;16.33;;;4.40;;
52740;SDS011;38634;52.138;9.912;2023-10-08T15:10:24;23.00;;;5.45;;
52740;SDS011;38634;52.138;9.912;2023-10-08T15:13:09;30.13;;;7.57;;
52740;SDS011;38634;52.138;9.912;2023-10-08T15:15:55;12.45;;;3.63;;
52740;SDS011;38634;52.138;9.912;2023-10-08T15:18:42;20.40;;;5.68;;
52740;SDS011;38634;52.138;9.912;2023-10-08T15:21:26;29.70;;;7.45;;
52740;SDS011;38634;52.138;9.912;2023-10-08T15:24:11;26.52;;;6.32;;
52740;SDS011;38634;52.138;9.912;2023-10-08T15:26:58;15.38;;;4.38;;
52740;SDS011;38634;52.138;9.912;2023-10-08T15:29:43;24.00;;;5.60;;
52740;SDS011;38634;52.138;9.912;2023-10-08T15:32:28;23.27;;;6.25;;
52740;SDS011;38634;52.138;9.912;2023-10-08T15:35:13;26.05;;;6.63;;
52740;SDS011;38634;52.138;9.912;2023-10-08T15:38:03;14.68;;;4.13;;
52740;SDS011;38634;52.138;9.912;2023-10-08T15:40:48;26.10;;;7.10;;
52740;SDS011;38634;52.138;9.912;2023-10-08T15:43:33;21.17;;;5.80;;
52740;SDS011;38634;52.138;9.912;2023-10-08T15:46:18;14.93;;;4.22;;
52740;SDS011;38634;52.138;9.912;2023-10-08T15:49:02;15.55;;;4.53;;
52740;SDS011;38634;52.138;9.912;2023-10-08T15:51:47;24.02;;;6.43;;
52740;SDS011;38634;52.138;9.912;2023-10-08T15:54:31;32.92;;;7.60;;
52740;SDS011;38634;52.138;9.912;2023-10-08T15:57:16;10.43;;;3.60;;
52740;SDS011;38634;52.138;9.912;2023-10-08T16:00:02;12.35;;;3.78;;
52740;SDS011;38634;52.138;9.912;2023-10-08T16:02:47;21.10;;;5.65;;
52740;SDS011;38634;52.138;9.912;2023-10-08T16:05:32;27.20;;;7.07;;
52740;SDS011;38634;52.138;9.912;2023-10-08T16:08:17;12.65;;;3.75;;
52740;SDS011;38634;52.138;9.912;2023-10-08T16:11:02;13.80;;;3.90;;
52740;SDS011;38634;52.138;9.912;2023-10-08T16:13:46;18.30;;;5.03;;
52740;SDS011;38634;52.138;9.912;2023-10-08T16:16:31;29.88;;;7.18;;
52740;SDS011;38634;52.138;9.912;2023-10-08T16:19:16;25.20;;;5.88;;
52740;SDS011;38634;52.138;9.912;2023-10-08T16:22:02;11.05;;;3.45;;
52740;SDS011;38634;52.138;9.912;2023-10-08T16:24:47;24.58;;;5.75;;
52740;SDS011;38634;52.138;9.912;2023-10-08T16:27:31;17.80;;;5.30;;
52740;SDS011;38634;52.138;9.912;2023-10-08T16:30:18;14.75;;;4.38;;
52740;SDS011;38634;52.138;9.912;2023-10-08T16:33:11;29.10;;;7.45;;
52740;SDS011;38634;52.138;9.912;2023-10-08T16:35:55;36.67;;;7.63;;
52740;SDS011;38634;52.138;9.912;2023-10-08T16:38:40;27.55;;;6.53;;
52740;SDS011;38634;52.138;9.912;2023-10-08T16:41:24;15.18;;;4.15;;
52740;SDS011;38634;52.138;9.912;2023-10-08T16:44:09;22.25;;;4.95;;
52740;SDS011;38634;52.138;9.912;2023-10-08T16:46:55;29.55;;;6.57;;
52740;SDS011;38634;52.138;9.912;2023-10-08T16:49:40;29.73;;;6.47;;
52740;SDS011;38634;52.138;9.912;2023-10-08T16:52:25;14.60;;;3.92;;
52740;SDS011;38634;52.138;9.912;2023-10-08T16:55:10;20.38;;;5.15;;
52740;SDS011;38634;52.138;9.912;2023-10-08T16:57:57;37.97;;;7.53;;
52740;SDS011;38634;52.138;9.912;2023-10-08T17:00:43;19.88;;;4.80;;
52740;SDS011;38634;52.138;9.912;2023-10-08T17:03:28;18.27;;;5.20;;
52740;SDS011;38634;52.138;9.912;2023-10-08T17:06:13;22.80;;;5.65;;
52740;SDS011;38634;52.138;9.912;2023-10-08T17:08:57;28.08;;;6.47;;
52740;SDS011;38634;52.138;9.912;2023-10-08T17:11:42;22.77;;;6.38;;
52740;SDS011;38634;52.138;9.912;2023-10-08T17:14:32;11.18;;;3.70;;
52740;SDS011;38634;52.138;9.912;2023-10-08T17:17:22;9.30;;;2.63;;
52740;SDS011;38634;52.138;9.912;2023-10-08T17:20:07;8.60;;;2.72;;
52740;SDS011;38634;52.138;9.912;2023-10-08T17:22:53;5.60;;;2.17;;
52740;SDS011;38634;52.138;9.912;2023-10-08T17:25:37;7.32;;;2.22;;
52740;SDS011;38634;52.138;9.912;2023-10-08T17:28:23;6.60;;;2.30;;
52740;SDS011;38634;52.138;9.912;2023-10-08T17:31:08;11.23;;;3.05;;
52740;SDS011;38634;52.138;9.912;2023-10-08T17:33:54;5.38;;;2.65;;
52740;SDS011;38634;52.138;9.912;2023-10-08T17:36:39;5.60;;;2.42;;
52740;SDS011;38634;52.138;9.912;2023-10-08T17:39:24;4.30;;;2.15;;
52740;SDS011;38634;52.138;9.912;2023-10-08T17:42:09;7.88;;;2.88;;
52740;SDS011;38634;52.138;9.912;2023-10-08T17:44:53;4.72;;;2.10;;
52740;SDS011;38634;52.138;9.912;2023-10-08T17:47:39;6.20;;;2.33;;
52740;SDS011;38634;52.138;9.912;2023-10-08T17:50:24;5.68;;;2.08;;
52740;SDS011;38634;52.138;9.912;2023-10-08T17:53:10;6.72;;;2.83;;
52740;SDS011;38634;52.138;9.912;2023-10-08T17:55:55;5.15;;;2.38;;
52740;SDS011;38634;52.138;9.912;2023-10-08T17:58:39;40.50;;;23.95;;
52740;SDS011;38634;52.138;9.912;2023-10-08T18:01:24;32.88;;;21.55;;
52740;SDS011;38634;52.138;9.912;2023-10-08T18:04:08;25.48;;;16.48;;
52740;SDS011;38634;52.138;9.912;2023-10-08T18:06:56;17.52;;;13.57;;
52740;SDS011;38634;52.138;9.912;2023-10-08T18:09:41;20.00;;;11.23;;
52740;SDS011;38634;52.138;9.912;2023-10-08T18:12:26;16.20;;;10.20;;
52740;SDS011;38634;52.138;9.912;2023-10-08T18:15:11;10.82;;;5.88;;
52740;SDS011;38634;52.138;9.912;2023-10-08T18:17:59;14.93;;;7.63;;
52740;SDS011;38634;52.138;9.912;2023-10-08T18:20:44;12.65;;;5.93;;
52740;SDS011;38634;52.138;9.912;2023-10-08T18:23:30;17.65;;;5.68;;
52740;SDS011;38634;52.138;9.912;2023-10-08T18:26:16;13.90;;;5.78;;
52740;SDS011;38634;52.138;9.912;2023-10-08T18:29:00;12.77;;;4.72;;
52740;SDS011;38634;52.138;9.912;2023-10-08T18:31:49;12.95;;;5.25;;
52740;SDS011;38634;52.138;9.912;2023-10-08T18:34:33;15.90;;;5.15;;
52740;SDS011;38634;52.138;9.912;2023-10-08T18:37:19;10.60;;;3.67;;
52740;SDS011;38634;52.138;9.912;2023-10-08T18:40:05;10.32;;;3.30;;
52740;SDS011;38634;52.138;9.912;2023-10-08T18:42:56;13.13;;;3.58;;
52740;SDS011;38634;52.138;9.912;2023-10-08T18:45:43;11.63;;;3.33;;
52740;SDS011;38634;52.138;9.912;2023-10-08T18:48:29;11.75;;;3.55;;
52740;SDS011;38634;52.138;9.912;2023-10-08T18:51:14;8.85;;;2.88;;
52740;SDS011;38634;52.138;9.912;2023-10-08T18:54:03;7.10;;;2.70;;
52740;SDS011;38634;52.138;9.912;2023-10-08T18:56:50;2.58;;;1.88;;
52740;SDS011;38634;52.138;9.912;2023-10-08T18:59:34;8.27;;;2.60;;
52740;SDS011;38634;52.138;9.912;2023-10-08T19:02:19;6.60;;;2.40;;
52740;SDS011;38634;52.138;9.912;2023-10-08T19:05:04;8.13;;;2.92;;
52740;SDS011;38634;52.138;9.912;2023-10-08T19:07:49;12.00;;;4.68;;
52740;SDS011;38634;52.138;9.912;2023-10-08T19:10:37;8.63;;;3.80;;
52740;SDS011;38634;52.138;9.912;2023-10-08T19:13:22;4.15;;;2.45;;
52740;SDS011;38634;52.138;9.912;2023-10-08T19:16:07;5.72;;;2.92;;
52740;SDS011;38634;52.138;9.912;2023-10-08T19:18:53;9.68;;;5.55;;
52740;SDS011;38634;52.138;9.912;2023-10-08T19:21:39;4.63;;;2.72;;
52740;SDS011;38634;52.138;9.912;2023-10-08T19:24:24;4.72;;;2.95;;
52740;SDS011;38634;52.138;9.912;2023-10-08T19:27:09;4.72;;;2.47;;
52740;SDS011;38634;52.138;9.912;2023-10-08T19:29:53;4.30;;;3.15;;
52740;SDS011;38634;52.138;9.912;2023-10-08T19:32:38;6.82;;;3.00;;
52740;SDS011;38634;52.138;9.912;2023-10-08T19:35:23;4.45;;;2.40;;
52740;SDS011;38634;52.138;9.912;2023-10-08T19:38:08;5.93;;;2.92;;
52740;SDS011;38634;52.138;9.912;2023-10-08T19:40:53;6.28;;;2.95;;
52740;SDS011;38634;52.138;9.912;2023-10-08T19:43:37;8.25;;;3.92;;
52740;SDS011;38634;52.138;9.912;2023-10-08T19:46:22;10.95;;;2.70;;
52740;SDS011;38634;52.138;9.912;2023-10-08T19:49:07;12.75;;;3.20;;
52740;SDS011;38634;52.138;9.912;2023-10-08T19:51:52;10.63;;;3.53;;
52740;SDS011;38634;52.138;9.912;2023-10-08T19:54:37;3.80;;;2.28;;
52740;SDS011;38634;52.138;9.912;2023-10-08T19:57:21;4.70;;;2.58;;
52740;SDS011;38634;52.138;9.912;2023-10-08T20:00:06;5.55;;;2.63;;
52740;SDS011;38634;52.138;9.912;2023-10-08T20:02:58;4.53;;;2.85;;
52740;SDS011;38634;52.138;9.912;2023-10-08T20:05:43;5.18;;;3.10;;
52740;SDS011;38634;52.138;9.912;2023-10-08T20:08:27;6.15;;;3.05;;
52740;SDS011;38634;52.138;9.912;2023-10-08T20:11:12;6.28;;;2.40;;
52740;SDS011;38634;52.138;9.912;2023-10-08T20:13:57;5.60;;;2.28;;
52740;SDS011;38634;52.138;9.912;2023-10-08T20:16:41;9.93;;;2.78;;
52740;SDS011;38634;52.138;9.912;2023-10-08T20:19:26;8.70;;;2.97;;
52740;SDS011;38634;52.138;9.912;2023-10-08T20:22:13;8.93;;;3.28;;
52740;SDS011;38634;52.138;9.912;2023-10-08T20:25:00;9.10;;;2.50;;
52740;SDS011;38634;52.138;9.912;2023-10-08T20:27:46;10.27;;;2.90;;
52740;SDS011;38634;52.138;9.912;2023-10-08T20:30:31;4.20;;;2.45;;
52740;SDS011;38634;52.138;9.912;2023-10-08T20:33:17;5.28;;;2.45;;
52740;SDS011;38634;52.138;9.912;2023-10-08T20:36:04;6.10;;;2.75;;
52740;SDS011;38634;52.138;9.912;2023-10-08T20:38:49;4.80;;;2.65;;
52740;SDS011;38634;52.138;9.912;2023-10-08T20:41:34;3.53;;;1.98;;
52740;SDS011;38634;52.138;9.912;2023-10-08T20:44:20;3.53;;;2.00;;
52740;SDS011;38634;52.138;9.912;2023-10-08T20:47:07;3.70;;;2.08;;
52740;SDS011;38634;52.138;9.912;2023-10-08T20:49:51;10.40;;;3.53;;
52740;SDS011;38634;52.138;9.912;2023-10-08T20:52:37;10.32;;;2.80;;
52740;SDS011;38634;52.138;9.912;2023-10-08T20:55:30;9.68;;;2.63;;
52740;SDS011;38634;52.138;9.912;2023-10-08T20:58:17;10.20;;;2.60;;
52740;SDS011;38634;52.138;9.912;2023-10-08T21:01:02;9.57;;;2.65;;
52740;SDS011;38634;52.138;9.912;2023-10-08T21:03:50;10.60;;;2.95;;
52740;SDS011;38634;52.138;9.912;2023-10-08T21:06:35;11.45;;;3.47;;
52740;SDS011;38634;52.138;9.912;2023-10-08T21:09:19;10.80;;;2.90;;
52740;SDS011;38634;52.138;9.912;2023-10-08T21:12:06;11.60;;;3.75;;
52740;SDS011;38634;52.138;9.912;2023-10-08T21:14:51;10.20;;;2.92;;
52740;SDS011;38634;52.138;9.912;2023-10-08T21:17:36;5.47;;;2.33;;
52740;SDS011;38634;52.138;9.912;2023-10-08T21:20:25;6.78;;;3.85;;
52740;SDS011;38634;52.138;9.912;2023-10-08T21:23:11;4.93;;;3.03;;
52740;SDS011;38634;52.138;9.912;2023-10-08T21:25:56;7.82;;;3.78;;
52740;SDS011;38634;52.138;9.912;2023-10-08T21:28:41;8.23;;;3.20;;
52740;SDS011;38634;52.138;9.912;2023-10-08T21:31:25;8.82;;;2.78;;
52740;SDS011;38634;52.138;9.912;2023-10-08T21:34:10;8.63;;;3.33;;
52740;SDS011;38634;52.138;9.912;2023-10-08T21:36:55;11.32;;;3.45;;
52740;SDS011;38634;52.138;9.912;2023-10-08T21:39:40;12.88;;;3.58;;
52740;SDS011;38634;52.138;9.912;2023-10-08T21:42:25;9.48;;;3.10;;
52740;SDS011;38634;52.138;9.912;2023-10-08T21:45:10;9.43;;;2.85;;
52740;SDS011;38634;52.138;9.912;2023-10-08T21:47:58;10.40;;;2.72;;
52740;SDS011;38634;52.138;9.912;2023-10-08T21:50:43;9.13;;;2.58;;
52740;SDS011;38634;52.138;9.912;2023-10-08T21:53:28;5.65;;;2.58;;
52740;SDS011;38634;52.138;9.912;2023-10-08T21:56:13;5.78;;;2.72;;
52740;SDS011;38634;52.138;9.912;2023-10-08T21:58:57;5.97;;;2.72;;
52740;SDS011;38634;52.138;9.912;2023-10-08T22:01:42;5.70;;;2.65;;
52740;SDS011;38634;52.138;9.912;2023-10-08T22:04:26;4.75;;;2.53;;
52740;SDS011;38634;52.138;9.912;2023-10-08T22:07:11;7.93;;;3.33;;
52740;SDS011;38634;52.138;9.912;2023-10-08T22:09:56;6.53;;;3.05;;
52740;SDS011;38634;52.138;9.912;2023-10-08T22:12:41;7.95;;;3.10;;
52740;SDS011;38634;52.138;9.912;2023-10-08T22:15:29;7.47;;;2.67;;
52740;SDS011;38634;52.138;9.912;2023-10-08T22:18:14;10.18;;;3.13;;
52740;SDS011;38634;52.138;9.912;2023-10-08T22:21:12;6.75;;;2.90;;
52740;SDS011;38634;52.138;9.912;2023-10-08T22:23:57;6.05;;;2.83;;
52740;SDS011;38634;52.138;9.912;2023-10-08T22:26:43;8.60;;;2.92;;
52740;SDS011;38634;52.138;9.912;2023-10-08T22:29:29;10.32;;;2.70;;
52740;SDS011;38634;52.138;9.912;2023-10-08T22:32:14;9.88;;;3.90;;
52740;SDS011;38634;52.138;9.912;2023-10-08T22:34:59;7.70;;;2.42;;
52740;SDS011;38634;52.138;9.912;2023-10-08T22:37:45;9.02;;;2.40;;
52740;SDS011;38634;52.138;9.912;2023-10-08T22:40:45;7.05;;;2.22;;
52740;SDS011;38634;52.138;9.912;2023-10-08T22:43:52;9.30;;;2.78;;
52740;SDS011;38634;52.138;9.912;2023-10-08T22:46:43;7.82;;;2.45;;
52740;SDS011;38634;52.138;9.912;2023-10-08T22:49:28;4.43;;;2.17;;
52740;SDS011;38634;52.138;9.912;2023-10-08T22:52:15;8.90;;;4.40;;
52740;SDS011;38634;52.138;9.912;2023-10-08T22:55:00;6.70;;;2.15;;
52740;SDS011;38634;52.138;9.912;2023-10-08T22:57:47;6.90;;;2.25;;
52740;SDS011;38634;52.138;9.912;2023-10-08T23:00:32;8.30;;;3.30;;
52740;SDS011;38634;52.138;9.912;2023-10-08T23:03:18;9.02;;;2.63;;
52740;SDS011;38634;52.138;9.912;2023-10-08T23:06:05;8.18;;;3.60;;
52740;SDS011;38634;52.138;9.912;2023-10-08T23:08:51;8.73;;;3.17;;
52740;SDS011;38634;52.138;9.912;2023-10-08T23:11:43;8.88;;;3.15;;
52740;SDS011;38634;52.138;9.912;2023-10-08T23:14:32;7.95;;;3.33;;
52740;SDS011;38634;52.138;9.912;2023-10-08T23:17:16;6.90;;;3.05;;